createdAt,value
2023-03-29T06:51:07.298Z,91.20
2023-03-29T06:52:07.250Z,91.09
2023-03-29T06:53:07.170Z,91.05
2023-03-29T06:54:07.063Z,90.84
2023-03-29T06:55:08.268Z,89.36
2023-03-29T06:56:08.483Z,89.36
2023-03-29T06:57:08.353Z,88.43
2023-03-29T06:58:08.279Z,88.12
2023-03-29T06:59:08.251Z,88.22
2023-03-29T07:00:08.286Z,88.64
2023-03-29T07:01:08.202Z,89.15
2023-03-29T07:02:08.746Z,88.70
2023-03-29T07:03:08.355Z,88.32
2023-03-29T07:04:08.441Z,87.98
2023-03-29T07:05:08.304Z,87.98
2023-03-29T07:06:08.337Z,87.46
2023-03-29T07:07:08.397Z,87.35
2023-03-29T07:08:08.490Z,87.56
2023-03-29T07:09:08.299Z,87.35
2023-03-29T07:10:08.257Z,87.05
2023-03-29T07:11:08.259Z,87.32
2023-03-29T07:12:09.445Z,86.02
2023-03-29T07:13:08.288Z,86.43
2023-03-29T07:14:08.139Z,86.43
2023-03-29T07:15:08.161Z,86.84
2023-03-29T07:16:08.128Z,86.08
2023-03-29T07:17:08.283Z,85.46
2023-03-29T07:18:08.286Z,85.50
2023-03-29T07:19:08.233Z,85.50
2023-03-29T07:20:08.224Z,85.54
2023-03-29T07:21:08.366Z,86.84
2023-03-29T07:22:08.199Z,86.22
2023-03-29T07:23:08.279Z,87.26
2023-03-29T07:24:08.176Z,87.32
2023-03-29T07:25:08.207Z,87.11
2023-03-29T07:26:08.434Z,86.70
2023-03-29T07:27:08.175Z,86.39
2023-03-29T07:28:08.167Z,85.57
2023-03-29T07:29:08.327Z,85.94
2023-03-29T07:30:08.138Z,86.24
2023-03-29T07:31:08.389Z,83.77
2023-03-29T07:32:08.069Z,84.74
2023-03-29T07:33:08.129Z,85.73
2023-03-29T07:34:08.107Z,85.73
2023-03-29T07:35:07.993Z,85.38
2023-03-29T07:36:08.093Z,85.59
2023-03-29T07:37:07.945Z,85.49
2023-03-29T07:38:07.989Z,85.28
2023-03-29T07:39:07.993Z,83.84
2023-03-29T07:40:08.113Z,84.25
2023-03-29T07:41:08.243Z,84.77
2023-03-29T07:42:08.042Z,84.42
2023-03-29T07:43:08.391Z,85.20
2023-03-29T07:44:08.061Z,84.11
2023-03-29T07:45:09.165Z,83.39
2023-03-29T07:46:08.215Z,83.80
2023-03-29T07:47:07.978Z,84.00
2023-03-29T07:48:08.050Z,83.97
2023-03-29T07:49:08.035Z,83.76
2023-03-29T07:50:08.200Z,83.28
2023-03-29T07:51:07.978Z,83.25
2023-03-29T07:52:07.980Z,83.35
2023-03-29T07:53:07.877Z,83.51
2023-03-29T07:54:07.879Z,83.51
2023-03-29T07:55:07.942Z,83.58
2023-03-29T07:56:08.111Z,81.73
2023-03-29T07:57:07.901Z,81.56
2023-03-29T07:58:07.817Z,81.67
2023-03-29T07:59:07.973Z,83.31
2023-03-29T08:00:07.928Z,83.27
2023-03-29T08:01:08.071Z,83.68
2023-03-29T08:02:07.914Z,83.06
2023-03-29T08:03:07.935Z,81.62
2023-03-29T08:04:08.091Z,82.55
2023-03-29T08:05:07.977Z,82.34
2023-03-29T08:06:07.863Z,81.83
2023-03-29T08:07:07.923Z,82.04
2023-03-29T08:08:07.970Z,82.45
2023-03-29T08:09:08.040Z,81.62
2023-03-29T08:10:08.120Z,82.65
2023-03-29T08:11:07.918Z,82.86
2023-03-29T08:12:07.923Z,82.62
2023-03-29T08:13:07.915Z,81.69
2023-03-29T08:14:07.785Z,80.60
2023-03-29T08:15:07.765Z,80.80
2023-03-29T08:16:08.737Z,81.67
2023-03-29T08:17:07.759Z,81.87
2023-03-29T08:18:07.937Z,81.35
2023-03-29T08:19:07.672Z,81.25
2023-03-29T08:20:07.789Z,81.19
2023-03-29T08:21:07.747Z,81.56
2023-03-29T08:22:08.094Z,81.46
2023-03-29T08:23:07.837Z,81.56
2023-03-29T08:24:07.732Z,81.05
2023-03-29T08:25:07.709Z,81.46
2023-03-29T08:26:07.755Z,81.87
2023-03-29T08:27:07.667Z,81.76
2023-03-29T08:28:07.744Z,81.56
2023-03-29T08:29:07.862Z,81.76
2023-03-29T08:30:07.758Z,82.79
2023-03-29T08:31:08.495Z,83.41
2023-03-29T08:32:07.575Z,84.03
2023-03-29T08:33:07.632Z,82.59
2023-03-29T08:34:07.593Z,83.72
2023-03-29T08:35:07.571Z,83.51
2023-03-29T08:36:07.787Z,83.89
2023-03-29T08:37:07.571Z,84.36
2023-03-29T08:38:07.534Z,84.56
2023-03-29T08:39:07.560Z,83.91
2023-03-29T08:40:07.539Z,83.19
2023-03-29T08:41:07.603Z,82.99
2023-03-29T08:42:07.677Z,81.86
2023-03-29T08:43:07.632Z,82.64
2023-03-29T08:44:07.645Z,81.34
2023-03-29T08:45:07.638Z,81.62
2023-03-29T08:46:07.627Z,81.20
2023-03-29T08:47:07.525Z,81.10
2023-03-29T08:48:07.985Z,81.00
2023-03-29T08:49:07.566Z,81.14
2023-03-29T08:50:07.580Z,81.14
2023-03-29T08:51:09.460Z,80.52
2023-03-29T08:52:08.651Z,80.83
2023-03-29T08:53:07.599Z,81.65
2023-03-29T08:54:07.495Z,81.28
2023-03-29T08:55:07.445Z,80.66
2023-03-29T08:56:07.827Z,81.42
2023-03-29T08:57:07.645Z,81.28
2023-03-29T08:58:07.433Z,81.48
2023-03-29T08:59:07.428Z,81.79
2023-03-29T09:00:07.404Z,81.45
2023-03-29T09:01:07.557Z,80.73
2023-03-29T09:02:07.804Z,81.38
2023-03-29T09:03:07.456Z,80.77
2023-03-29T09:06:26.500Z,81.32
2023-03-29T09:09:46.811Z,81.28
2023-03-29T09:10:48.120Z,81.59
2023-03-29T09:11:47.994Z,81.55
2023-03-29T09:12:48.026Z,81.34
2023-03-29T09:13:48.182Z,80.42
2023-03-29T09:14:48.046Z,80.52
2023-03-29T09:15:48.182Z,80.11
2023-03-29T09:16:48.046Z,80.42
2023-03-29T09:17:49.609Z,79.19
2023-03-29T09:18:49.078Z,79.91
2023-03-29T09:19:49.145Z,80.73
2023-03-29T09:20:48.014Z,81.30
2023-03-29T09:21:48.029Z,80.38
2023-03-29T09:22:48.010Z,79.32
2023-03-29T09:23:48.402Z,79.11
2023-03-29T09:24:48.142Z,78.91
2023-03-29T09:25:53.363Z,77.92
2023-03-29T09:26:49.973Z,79.15
2023-03-29T09:27:47.864Z,79.15
2023-03-29T09:28:47.916Z,80.49
2023-03-29T09:29:47.890Z,81.06
2023-03-29T09:30:47.932Z,79.52
2023-03-29T09:31:47.993Z,78.97
2023-03-29T09:32:47.950Z,78.50
2023-03-29T09:33:47.820Z,78.29
2023-03-29T09:34:47.858Z,78.77
2023-03-29T09:35:47.944Z,77.98
2023-03-29T09:36:48.088Z,78.02
2023-03-29T09:37:47.916Z,78.64
2023-03-29T09:38:48.049Z,79.66
2023-03-29T09:39:48.216Z,78.70
2023-03-29T09:40:47.906Z,78.12
2023-03-29T09:41:47.968Z,80.35
2023-03-29T09:42:47.909Z,79.93
2023-03-29T09:43:48.037Z,79.69
2023-03-29T09:44:48.199Z,78.91
2023-03-29T09:45:47.971Z,78.09
2023-03-29T09:46:47.739Z,78.19
2023-03-29T09:47:47.867Z,79.52
2023-03-29T09:48:47.718Z,78.77
2023-03-29T09:49:47.844Z,78.02
2023-03-29T09:50:47.835Z,77.81
2023-03-29T09:51:48.088Z,78.08
2023-03-29T09:52:47.890Z,78.59
2023-03-29T09:53:47.947Z,77.98
2023-03-29T09:54:47.794Z,76.92
2023-03-29T09:55:49.093Z,77.23
2023-03-29T09:56:49.089Z,76.40
2023-03-29T09:57:47.792Z,76.20
2023-03-29T09:58:48.134Z,77.47
2023-03-29T09:59:47.804Z,77.43
2023-03-29T10:00:47.754Z,76.85
2023-03-29T10:01:47.792Z,76.95
2023-03-29T10:02:47.956Z,76.85
2023-03-29T10:03:47.702Z,77.64
2023-03-29T10:04:47.728Z,76.40
2023-03-29T10:05:47.611Z,77.02
2023-03-29T10:06:47.652Z,76.78
2023-03-29T10:07:47.616Z,76.78
2023-03-29T10:08:47.612Z,77.09
2023-03-29T10:09:47.783Z,76.84
2023-03-29T10:10:47.715Z,75.62
2023-03-29T10:11:47.698Z,76.06
2023-03-29T10:12:48.004Z,76.27
2023-03-29T10:13:47.619Z,76.47
2023-03-29T10:14:47.861Z,76.27
2023-03-29T10:15:47.651Z,76.13
2023-03-29T10:16:48.000Z,76.75
2023-03-29T10:17:47.633Z,76.23
2023-03-29T10:18:47.799Z,76.13
2023-03-29T10:19:47.620Z,75.52
2023-03-29T10:20:47.651Z,75.42
2023-03-29T10:21:47.533Z,75.01
2023-03-29T10:22:47.504Z,75.21
2023-03-29T10:23:47.618Z,75.21
2023-03-29T10:24:47.464Z,75.99
2023-03-29T10:25:47.542Z,75.24
2023-03-29T10:26:47.539Z,74.93
2023-03-29T10:27:47.544Z,73.40
2023-03-29T10:28:47.584Z,74.43
2023-03-29T10:29:47.626Z,74.32
2023-03-29T10:30:47.563Z,74.32
2023-03-29T10:31:47.670Z,74.73
2023-03-29T10:32:47.572Z,74.52
2023-03-29T10:33:47.624Z,74.80
2023-03-29T10:34:47.560Z,73.68
2023-03-29T10:35:47.620Z,74.39
2023-03-29T10:36:47.851Z,74.90
2023-03-29T10:37:47.629Z,74.76
2023-03-29T10:38:47.617Z,74.25
2023-03-29T10:39:47.449Z,72.72
2023-03-29T10:40:47.547Z,73.33
2023-03-29T10:41:48.596Z,74.01
2023-03-29T10:42:47.389Z,74.73
2023-03-29T10:43:47.505Z,72.86
2023-03-29T10:44:47.417Z,72.96
2023-03-29T10:45:47.616Z,71.29
2023-03-29T10:46:47.497Z,72.31
2023-03-29T10:47:47.486Z,71.15
2023-03-29T10:48:47.722Z,71.19
2023-03-29T10:49:47.946Z,71.46
2023-03-29T10:50:47.436Z,71.06
2023-03-29T10:51:47.413Z,70.37
2023-03-29T10:52:47.570Z,71.15
2023-03-29T10:53:47.305Z,71.46
2023-03-29T10:54:47.310Z,72.58
2023-03-29T10:55:47.590Z,70.65
2023-03-29T10:56:47.392Z,71.19
2023-03-29T10:57:47.306Z,72.79
2023-03-29T10:58:47.745Z,73.10
2023-03-29T10:59:47.379Z,70.00
2023-03-29T11:00:47.390Z,70.54
2023-03-29T11:01:47.752Z,70.95
2023-03-29T11:02:47.468Z,71.02
2023-03-29T11:03:47.570Z,71.06
2023-03-29T11:04:47.304Z,71.15
2023-03-29T11:05:47.340Z,70.95
2023-03-29T11:06:47.410Z,71.53
2023-03-29T11:07:47.427Z,70.82
2023-03-29T11:08:47.328Z,71.26
2023-03-29T11:09:47.686Z,71.06
2023-03-29T11:10:47.346Z,71.77
2023-03-29T11:11:47.202Z,73.26
2023-03-29T11:12:47.146Z,72.34
2023-03-29T11:13:47.142Z,70.85
2023-03-29T11:14:47.354Z,71.15
2023-03-29T11:15:47.582Z,70.95
2023-03-29T11:16:47.692Z,71.39
2023-03-29T11:17:47.445Z,72.62
2023-03-29T11:18:47.356Z,73.16
2023-03-29T11:19:47.979Z,72.96
2023-03-29T11:20:47.633Z,72.75
2023-03-29T11:21:47.538Z,73.47
2023-03-29T11:22:47.222Z,73.36
2023-03-29T11:23:47.391Z,74.55
2023-03-29T11:24:47.133Z,72.82
2023-03-29T11:25:47.138Z,73.13
2023-03-29T11:26:47.087Z,73.54
2023-03-29T11:27:47.129Z,72.92
2023-03-29T11:28:47.045Z,73.13
2023-03-29T11:29:47.050Z,73.43
2023-03-29T11:30:47.196Z,72.31
2023-03-29T11:31:47.277Z,73.23
2023-03-29T11:32:47.295Z,73.19
2023-03-29T11:33:47.271Z,71.60
2023-03-29T11:34:47.148Z,71.33
2023-03-29T11:35:47.226Z,70.89
2023-03-29T11:36:47.140Z,71.94
2023-03-29T11:37:47.277Z,71.80
2023-03-29T11:38:47.124Z,70.98
2023-03-29T11:39:47.454Z,71.22
2023-03-29T11:40:47.255Z,71.70
2023-03-29T11:41:47.526Z,70.75
2023-03-29T11:42:47.173Z,70.95
2023-03-29T11:43:46.984Z,71.12
2023-03-29T11:44:47.032Z,70.89
2023-03-29T11:45:47.285Z,71.12
2023-03-29T11:46:47.067Z,70.51
2023-03-29T11:47:47.055Z,70.99
2023-03-29T11:48:46.920Z,70.99
2023-03-29T11:49:46.920Z,71.09
2023-03-29T11:50:46.959Z,71.47
2023-03-29T11:51:46.981Z,70.48
2023-03-29T11:52:47.029Z,70.72
2023-03-29T11:53:46.991Z,70.00
2023-03-29T11:54:46.914Z,70.24
2023-03-29T11:55:46.943Z,70.95
2023-03-29T11:56:47.318Z,72.38
2023-03-29T11:57:47.026Z,73.10
2023-03-29T11:58:46.897Z,73.16
2023-03-29T11:59:46.990Z,72.55
2023-03-29T12:00:46.957Z,73.16
2023-03-29T12:01:47.037Z,71.70
2023-03-29T12:02:47.090Z,70.82
2023-03-29T12:03:47.505Z,70.92
2023-03-29T12:04:46.827Z,71.02
2023-03-29T12:05:46.733Z,71.73
2023-03-29T12:06:46.903Z,71.80
2023-03-29T12:07:46.825Z,71.87
2023-03-29T12:08:47.241Z,70.92
2023-03-29T12:09:47.001Z,69.19
2023-03-29T12:10:46.805Z,68.82
2023-03-29T12:11:47.327Z,71.16
2023-03-29T12:12:46.849Z,70.75
2023-03-29T12:13:46.905Z,69.12
2023-03-29T12:14:46.881Z,70.24
2023-03-29T12:15:46.791Z,71.09
2023-03-29T12:16:46.969Z,70.78
2023-03-29T12:17:46.899Z,71.09
2023-03-29T12:18:46.713Z,70.95
2023-03-29T12:19:46.804Z,71.16
2023-03-29T12:20:46.850Z,69.32
2023-03-29T12:21:46.677Z,69.63
2023-03-29T12:22:46.690Z,68.71
2023-03-29T12:23:46.634Z,69.15
2023-03-29T12:24:46.799Z,70.14
2023-03-29T12:25:46.725Z,69.40
2023-03-29T12:26:46.880Z,69.60
2023-03-29T12:27:46.737Z,69.80
2023-03-29T12:28:46.830Z,68.44
2023-03-29T12:29:46.770Z,68.79
2023-03-29T12:30:47.025Z,69.19
2023-03-29T12:31:46.758Z,69.87
2023-03-29T12:32:46.863Z,69.26
2023-03-29T12:33:47.013Z,69.77
2023-03-29T12:34:46.944Z,69.19
2023-03-29T12:35:46.784Z,69.16
2023-03-29T12:36:46.581Z,67.83
2023-03-29T12:37:46.588Z,68.72
2023-03-29T12:38:46.985Z,67.60
2023-03-29T12:39:46.850Z,67.97
2023-03-29T12:40:46.730Z,67.24
2023-03-29T12:41:46.709Z,68.05
2023-03-29T12:42:46.767Z,67.88
2023-03-29T12:43:46.649Z,67.94
2023-03-29T12:44:46.610Z,68.18
2023-03-29T12:45:47.987Z,67.77
2023-03-29T12:46:47.419Z,67.16
2023-03-29T12:47:46.840Z,68.49
2023-03-29T12:48:46.657Z,67.77
2023-03-29T12:49:46.629Z,68.35
2023-03-29T12:50:47.074Z,66.86
2023-03-29T12:51:46.480Z,67.94
2023-03-29T12:52:46.510Z,67.10
2023-03-29T12:53:46.707Z,66.29
2023-03-29T12:54:46.455Z,66.26
2023-03-29T12:55:46.470Z,65.88
2023-03-29T12:56:46.776Z,65.27
2023-03-29T12:57:46.498Z,66.22
2023-03-29T12:58:46.784Z,66.93
2023-03-29T12:59:46.514Z,65.74
2023-03-29T13:00:47.131Z,66.86
2023-03-29T13:01:47.389Z,66.05
2023-03-29T13:02:46.435Z,66.86
2023-03-29T13:03:47.879Z,67.67
2023-03-29T13:04:46.699Z,67.16
2023-03-29T13:05:46.542Z,67.44
2023-03-29T13:06:46.457Z,67.84
2023-03-29T13:07:46.645Z,66.93
2023-03-29T13:08:46.655Z,67.44
2023-03-29T13:09:46.493Z,66.86
2023-03-29T13:10:46.370Z,67.77
2023-03-29T13:11:46.348Z,67.02
2023-03-29T13:12:47.464Z,69.16
2023-03-29T13:13:46.278Z,68.72
2023-03-29T13:14:46.512Z,68.55
2023-03-29T13:15:46.491Z,68.14
2023-03-29T13:16:46.513Z,68.72
2023-03-29T13:17:46.429Z,68.62
2023-03-29T13:18:46.547Z,68.89
2023-03-29T13:19:46.417Z,68.76
2023-03-29T13:20:46.421Z,67.27
2023-03-29T13:21:46.518Z,67.64
2023-03-29T13:22:46.374Z,67.00
2023-03-29T13:23:46.266Z,65.55
2023-03-29T13:24:46.248Z,65.85
2023-03-29T13:25:46.748Z,65.31
2023-03-29T13:26:46.308Z,65.65
2023-03-29T13:27:46.239Z,65.78
2023-03-29T13:28:46.226Z,67.00
2023-03-29T13:29:46.207Z,67.34
2023-03-29T13:30:46.587Z,66.74
2023-03-29T13:31:46.319Z,67.11
2023-03-29T13:32:46.629Z,65.79
2023-03-29T13:33:46.423Z,64.88
2023-03-29T13:34:46.243Z,65.89
2023-03-29T13:35:46.297Z,67.14
2023-03-29T13:36:46.299Z,67.75
2023-03-29T13:37:46.315Z,65.65
2023-03-29T13:38:46.285Z,66.43
2023-03-29T13:39:46.608Z,66.33
2023-03-29T13:40:46.208Z,65.92
2023-03-29T13:41:46.553Z,66.94
2023-03-29T13:42:47.228Z,66.23
2023-03-29T13:43:47.253Z,65.69
2023-03-29T13:44:46.139Z,65.86
2023-03-29T13:45:46.187Z,64.41
2023-03-29T13:46:46.317Z,65.39
2023-03-29T13:47:58.333Z,64.44
2023-03-29T13:48:48.092Z,65.28
2023-03-29T13:49:46.140Z,64.28
2023-03-29T13:50:46.131Z,61.60
2023-03-29T13:51:46.158Z,58.87
2023-03-29T13:52:46.475Z,58.74
2023-03-29T13:53:46.185Z,58.56
